WetterOnline ( https://www.wetteronline.de )

Wetter aktuell Grünenbach

Aktuelles Wetter: Leutkirch-Herlazhofen (671m)

6-stündlich | Neueste Meldungen
Ortszeit Temperatur Wetter
Sa, 24.10. 2:00 10.9° C leichter Regen
Fr, 23.10. 20:00 12.3° C leichter Regen
Fr, 23.10. 14:00 14.4° C leichter Regen
Fr, 23.10. 8:00 10.3° C Regen
Fr, 23.10. 2:00 12.3° C leichter Regen
Do, 22.10. 20:00 11.4° C bewölkt
Do, 22.10. 14:00 18.0° C bewölkt
Do, 22.10. 8:00 5.6° C wolkig
Ortszeit Temperatur Wetter
Sa, 24.10. 5:10 10.0° C Sprühregen
Sa, 24.10. 5:00 10.2° C Sprühregen
Sa, 24.10. 4:50 10.2° C Sprühregen
Sa, 24.10. 4:40 10.2° C Sprühregen
Sa, 24.10. 4:30 10.1° C bedeckt
Sa, 24.10. 4:20 10.1° C bedeckt
Sa, 24.10. 4:00 10.3° C leichter Regen
Sa, 24.10. 3:30 10.4° C bedeckt
Sa, 24.10. 3:00 10.6° C bedeckt
Sa, 24.10. 2:30 10.7° C bewölkt
Sa, 24.10. 2:00 10.9° C leichter Regen
Ortszeit Relative Feuchte Sichtweite
Sa, 24.10. 2:00 92% 28 km
Fr, 23.10. 20:00 92% 11 km
Fr, 23.10. 14:00 83% 21 km
Fr, 23.10. 8:00 97% 8 km
Fr, 23.10. 2:00 85% 35 km
Do, 22.10. 20:00 83% 40 km
Do, 22.10. 14:00 49% 55 km
Do, 22.10. 8:00 91% 45 km
Ortszeit Relative Feuchte Sichtweite
Sa, 24.10. 5:10 94% -
Sa, 24.10. 5:00 92% 22 km
Sa, 24.10. 4:50 92% -
Sa, 24.10. 4:40 93% -
Sa, 24.10. 4:30 93% 50 km
Sa, 24.10. 4:20 93% -
Sa, 24.10. 4:00 91% 10 km
Sa, 24.10. 3:30 92% 65 km
Sa, 24.10. 3:00 92% 60 km
Sa, 24.10. 2:30 94% 35 km
Sa, 24.10. 2:00 92% 28 km
Ortszeit Niederschlagsmenge Niederschlagsart
Sa, 24.10. 2:00 3 l/m2 in 6 Std. Regen
Fr, 23.10. 20:00 0.7 l/m2 in 12 Std. Regen
Fr, 23.10. 14:00 0.1 l/m2 in 6 Std. Regen
Fr, 23.10. 8:00 0.5 l/m2 in 12 Std. Regen
Fr, 23.10. 2:00 0.1 l/m2 in 6 Std. Regen
Do, 22.10. 20:00 0.0 l/m2 in 12 Std. -
Do, 22.10. 14:00 0.0 l/m2 in 6 Std. -
Do, 22.10. 8:00 0.0 l/m2 in 12 Std. -
Ortszeit Niederschlagsmenge Niederschlagsart
Sa, 24.10. 5:10 keine Meldung -
Sa, 24.10. 5:00 0.2 l/m2 in 1 Std. Regen
Sa, 24.10. 4:50 keine Meldung -
Sa, 24.10. 4:40 keine Meldung -
Sa, 24.10. 4:30 0.1 l/m2 in 1 Std. Schneeregen
Sa, 24.10. 4:20 keine Meldung -
Sa, 24.10. 4:00 0.2 l/m2 in 1 Std. Regen
Sa, 24.10. 3:30 0.1 l/m2 in 1 Std. Schneeregen
Sa, 24.10. 3:00 0.1 l/m2 in 1 Std. Regen
Sa, 24.10. 2:30 0.1 l/m2 in 1 Std. Schneeregen
Sa, 24.10. 2:00 0.1 l/m2 in 1 Std. Regen
Ortszeit Stärke Spitze Richtung
km/h Bft. km/h Grad Sektor
Sa, 24.10. 2:00 13 3 33 210° SW
Fr, 23.10. 20:00 14 3 25 220° SW
Fr, 23.10. 14:00 9 2 15 280° W
Fr, 23.10. 8:00 0 0 11 - -
Fr, 23.10. 2:00 2 1 22 180° S
Do, 22.10. 20:00 6 1 15 200° S
Do, 22.10. 14:00 9 2 17 170° S
Do, 22.10. 8:00 2 1 15 360° N
Ortszeit Stärke Spitze Richtung
km/h Bft. km/h Grad Sektor
Sa, 24.10. 5:10 18 3 - 210° SW
Sa, 24.10. 5:00 18 3 32 220° SW
Sa, 24.10. 4:50 18 3 - 220° SW
Sa, 24.10. 4:40 14 3 - 210° SW
Sa, 24.10. 4:30 18 3 32 210° SW
Sa, 24.10. 4:20 18 3 - 210° SW
Sa, 24.10. 4:00 18 3 29 220° SW
Sa, 24.10. 3:30 11 2 22 220° SW
Sa, 24.10. 3:00 11 2 18 210° SW
Sa, 24.10. 2:30 11 2 18 210° SW
Sa, 24.10. 2:00 13 3 19 210° SW
Ortszeit Untergrenze Bedeckung Gattung
total tief tief mittel hoch
Sa, 24.10. 2:00 1800 m 6/8 5/8 - - -
Fr, 23.10. 20:00 240 m 8/8 8/8 - - -
Fr, 23.10. 14:00 2100 m 8/8 7/8 - - -
Fr, 23.10. 8:00 1200 m 7/8 2/8 - - -
Fr, 23.10. 2:00 2100 m 8/8 8/8 - - -
Do, 22.10. 20:00 3900 m 8/8 7/8 - - -
Do, 22.10. 14:00 5400 m 7/8 7/8 - - -
Do, 22.10. 8:00 6300 m 7/8 4/8 - - -
Ortszeit Bedeckungsgrad in Achtel und Wolkenuntergrenze
Sa, 24.10. 5:10 6(240m) 7(390m)
Sa, 24.10. 5:00 2(270m) 7(480m) 7(840m)
Sa, 24.10. 4:50 2(270m) 7(480m) 7(840m)
Sa, 24.10. 4:40 7(480m) 7(840m) 8(1800m)
Sa, 24.10. 4:30 3(450m) 5(1260m) 8(1500m)
Sa, 24.10. 4:20 3(450m) 5(1260m) 8(1500m)
Sa, 24.10. 4:00 2(810m) 7(1500m) 8(4500m)
Sa, 24.10. 3:30 5(780m) 7(1260m) 8(1800m)
Sa, 24.10. 3:00 3(1320m) 8(1500m)
Sa, 24.10. 2:30 5(1140m) 7(1350m) 7(2100m)
Sa, 24.10. 2:00 5(1800m) 6(3300m) 6(4200m)
Ortszeit Luftdruck NN (hPa) Tendenz (hPa in 3 Std.)
Sa, 24.10. 2:00 1018 + 0,2
Fr, 23.10. 20:00 1016 + 1,4
Fr, 23.10. 14:00 1014 - 0,7
Fr, 23.10. 8:00 1017 - 0,9
Fr, 23.10. 2:00 1018 - 1,0
Do, 22.10. 20:00 1019 + 1,7
Do, 22.10. 14:00 1017 - 0,9
Do, 22.10. 8:00 1020 + 0,4
Ortszeit Luftdruck NN (hPa) Tendenz (hPa in 3 Std.)
Sa, 24.10. 5:10 1018 keine Meldung
Sa, 24.10. 5:00 1018 + 0,3
Sa, 24.10. 4:50 1018 keine Meldung
Sa, 24.10. 4:40 1018 keine Meldung
Sa, 24.10. 4:30 1018 + 0,3
Sa, 24.10. 4:20 1018 keine Meldung
Sa, 24.10. 4:00 1018 + 0,1
Sa, 24.10. 3:30 1018 + 0,2
Sa, 24.10. 3:00 1018 0,0
Sa, 24.10. 2:30 1018 0,0
Sa, 24.10. 2:00 1018 + 0,2
Ortszeit Schneehöhe (cm)
Sa, 24.10. 2:00 0
Fr, 23.10. 20:00 0
Fr, 23.10. 14:00 0
Fr, 23.10. 8:00 0
Fr, 23.10. 2:00 0
Do, 22.10. 20:00 0
Do, 22.10. 14:00 0
Do, 22.10. 8:00 0
Ortszeit Schneehöhe (cm)
Sa, 24.10. 5:10 0
Sa, 24.10. 5:00 0
Sa, 24.10. 4:50 0
Sa, 24.10. 4:40 0
Sa, 24.10. 4:30 0
Sa, 24.10. 4:20 0
Sa, 24.10. 4:00 0
Sa, 24.10. 3:30 0
Sa, 24.10. 3:00 0
Sa, 24.10. 2:30 0
Sa, 24.10. 2:00 0
Link zu dieser Seite / Seite empfehlen

Das Wetter in ...